Terminal Aerodrome Forecast
Issued by NWS

Home | Current Version | Previous Version | Graphics & Text | Print | Product List | Glossary Off
Versions: 1 2 3 4 5 6 7 8 9 10 11 12 13 14 15 16 17 18 19 20 21 22 23 24 25 26 27 28 29 30 31 32 33 34 35 36 37 38 39 40 41 42 43 44 45 46

000
FTUS43 KDDC 242333
TAFGCK
TAF
KGCK 242333Z 2500/2524 35023G28KT P6SM OVC009
     FM250600 35018KT P6SM BKN008
     FM250900 34015KT P6SM SCT015
     FM251500 33013KT P6SM SKC
     FM252000 34008KT P6SM SKC=

USA.gov is the U.S. government's official web portal to all federal, state and local government web resources and services.